sensor_id;sensor_type;location;lat;lon;timestamp;temperature;humidity
44435;DHT22;30138;20.964;105.830;2023-03-23T00:03:58;29.00;99.90
44435;DHT22;30138;20.964;105.830;2023-03-23T00:09:05;29.00;99.90
44435;DHT22;30138;20.964;105.830;2023-03-23T00:14:13;29.00;99.90
44435;DHT22;30138;20.964;105.830;2023-03-23T00:19:25;29.00;99.90
44435;DHT22;30138;20.964;105.830;2023-03-23T00:24:32;29.00;99.90
44435;DHT22;30138;20.964;105.830;2023-03-23T00:29:42;29.00;99.90
44435;DHT22;30138;20.964;105.830;2023-03-23T00:34:50;29.00;99.90
44435;DHT22;30138;20.964;105.830;2023-03-23T00:39:59;29.00;99.90
44435;DHT22;30138;20.964;105.830;2023-03-23T00:45:15;29.00;99.90
44435;DHT22;30138;20.964;105.830;2023-03-23T00:50:23;29.00;99.90
44435;DHT22;30138;20.964;105.830;2023-03-23T00:55:58;29.00;99.90
44435;DHT22;30138;20.964;105.830;2023-03-23T01:01:08;29.00;99.90
44435;DHT22;30138;20.964;105.830;2023-03-23T01:06:16;29.00;99.90
44435;DHT22;30138;20.964;105.830;2023-03-23T01:11:38;29.00;99.90
44435;DHT22;30138;20.964;105.830;2023-03-23T01:17:14;29.00;99.90
44435;DHT22;30138;20.964;105.830;2023-03-23T01:22:21;29.00;99.90
44435;DHT22;30138;20.964;105.830;2023-03-23T01:27:29;29.00;99.90
44435;DHT22;30138;20.964;105.830;2023-03-23T01:39:05;29.00;99.90
44435;DHT22;30138;20.964;105.830;2023-03-23T01:50:22;29.00;99.90
44435;DHT22;30138;20.964;105.830;2023-03-23T01:55:42;29.00;99.90
44435;DHT22;30138;20.964;105.830;2023-03-23T02:00:54;29.00;99.90
44435;DHT22;30138;20.964;105.830;2023-03-23T02:06:06;29.00;99.90
44435;DHT22;30138;20.964;105.830;2023-03-23T02:11:37;29.00;99.90
44435;DHT22;30138;20.964;105.830;2023-03-23T02:16:47;29.00;99.90
44435;DHT22;30138;20.964;105.830;2023-03-23T02:33:46;29.00;99.90
44435;DHT22;30138;20.964;105.830;2023-03-23T02:39:00;29.00;99.90
44435;DHT22;30138;20.964;105.830;2023-03-23T02:44:11;29.00;99.90
44435;DHT22;30138;20.964;105.830;2023-03-23T02:49:22;29.00;99.90
44435;DHT22;30138;20.964;105.830;2023-03-23T02:54:31;29.00;99.90
44435;DHT22;30138;20.964;105.830;2023-03-23T02:59:39;29.10;99.90
44435;DHT22;30138;20.964;105.830;2023-03-23T03:04:53;29.10;99.90
44435;DHT22;30138;20.964;105.830;2023-03-23T03:10:10;29.10;99.90
44435;DHT22;30138;20.964;105.830;2023-03-23T03:15:29;29.10;99.90
44435;DHT22;30138;20.964;105.830;2023-03-23T03:20:45;29.10;99.90
44435;DHT22;30138;20.964;105.830;2023-03-23T03:25:55;29.20;99.90
44435;DHT22;30138;20.964;105.830;2023-03-23T03:31:18;29.20;99.90
44435;DHT22;30138;20.964;105.830;2023-03-23T03:36:31;29.30;99.90
44435;DHT22;30138;20.964;105.830;2023-03-23T03:41:43;29.30;99.90
44435;DHT22;30138;20.964;105.830;2023-03-23T03:46:50;29.30;99.90
44435;DHT22;30138;20.964;105.830;2023-03-23T03:52:00;29.30;99.90
44435;DHT22;30138;20.964;105.830;2023-03-23T03:57:15;29.40;99.90
44435;DHT22;30138;20.964;105.830;2023-03-23T04:02:53;29.40;99.90
44435;DHT22;30138;20.964;105.830;2023-03-23T04:08:22;29.50;99.90
44435;DHT22;30138;20.964;105.830;2023-03-23T04:13:30;29.50;99.90
44435;DHT22;30138;20.964;105.830;2023-03-23T04:18:47;29.60;99.90
44435;DHT22;30138;20.964;105.830;2023-03-23T04:24:04;29.60;99.90
44435;DHT22;30138;20.964;105.830;2023-03-23T04:29:13;29.60;99.90
44435;DHT22;30138;20.964;105.830;2023-03-23T04:34:32;29.70;99.90
44435;DHT22;30138;20.964;105.830;2023-03-23T04:39:43;29.70;99.90
44435;DHT22;30138;20.964;105.830;2023-03-23T04:44:52;29.70;99.90
44435;DHT22;30138;20.964;105.830;2023-03-23T04:50:11;29.80;99.90
44435;DHT22;30138;20.964;105.830;2023-03-23T04:55:23;29.80;99.90
44435;DHT22;30138;20.964;105.830;2023-03-23T05:00:35;29.90;99.90
44435;DHT22;30138;20.964;105.830;2023-03-23T05:05:44;29.90;99.90
44435;DHT22;30138;20.964;105.830;2023-03-23T05:11:00;29.90;99.90
44435;DHT22;30138;20.964;105.830;2023-03-23T05:16:11;29.90;99.90
44435;DHT22;30138;20.964;105.830;2023-03-23T05:21:19;30.00;99.90
44435;DHT22;30138;20.964;105.830;2023-03-23T05:26:32;30.00;99.90
44435;DHT22;30138;20.964;105.830;2023-03-23T05:31:46;30.00;99.90
44435;DHT22;30138;20.964;105.830;2023-03-23T05:36:54;30.00;99.90
44435;DHT22;30138;20.964;105.830;2023-03-23T05:42:25;30.10;99.90
44435;DHT22;30138;20.964;105.830;2023-03-23T05:47:49;30.10;99.90
44435;DHT22;30138;20.964;105.830;2023-03-23T05:52:58;30.10;99.90
44435;DHT22;30138;20.964;105.830;2023-03-23T05:58:12;30.20;99.90
44435;DHT22;30138;20.964;105.830;2023-03-23T06:03:24;30.20;99.90
44435;DHT22;30138;20.964;105.830;2023-03-23T06:08:47;30.20;99.90
44435;DHT22;30138;20.964;105.830;2023-03-23T06:14:07;30.20;99.90
44435;DHT22;30138;20.964;105.830;2023-03-23T06:19:15;30.30;99.90
44435;DHT22;30138;20.964;105.830;2023-03-23T06:24:34;30.30;99.90
44435;DHT22;30138;20.964;105.830;2023-03-23T06:29:44;30.30;99.90
44435;DHT22;30138;20.964;105.830;2023-03-23T06:34:51;30.30;99.90
44435;DHT22;30138;20.964;105.830;2023-03-23T06:40:18;30.40;99.90
44435;DHT22;30138;20.964;105.830;2023-03-23T06:45:34;30.40;99.90
44435;DHT22;30138;20.964;105.830;2023-03-23T06:51:16;30.40;99.90
44435;DHT22;30138;20.964;105.830;2023-03-23T06:56:27;30.50;99.90
44435;DHT22;30138;20.964;105.830;2023-03-23T07:01:37;30.50;99.90
44435;DHT22;30138;20.964;105.830;2023-03-23T07:06:45;30.50;99.90
44435;DHT22;30138;20.964;105.830;2023-03-23T07:11:53;30.50;99.90
44435;DHT22;30138;20.964;105.830;2023-03-23T07:17:11;30.50;99.90
44435;DHT22;30138;20.964;105.830;2023-03-23T07:22:36;30.50;99.90
44435;DHT22;30138;20.964;105.830;2023-03-23T07:27:57;30.60;99.90
44435;DHT22;30138;20.964;105.830;2023-03-23T07:33:08;30.60;99.90
44435;DHT22;30138;20.964;105.830;2023-03-23T07:38:18;30.60;99.90
44435;DHT22;30138;20.964;105.830;2023-03-23T07:43:33;30.60;99.90
44435;DHT22;30138;20.964;105.830;2023-03-23T07:49:12;30.70;99.90
44435;DHT22;30138;20.964;105.830;2023-03-23T07:54:26;30.70;99.90
44435;DHT22;30138;20.964;105.830;2023-03-23T07:59:39;30.70;99.90
44435;DHT22;30138;20.964;105.830;2023-03-23T08:04:48;30.70;99.90
44435;DHT22;30138;20.964;105.830;2023-03-23T08:10:20;30.70;99.90
44435;DHT22;30138;20.964;105.830;2023-03-23T08:15:48;30.70;99.90
44435;DHT22;30138;20.964;105.830;2023-03-23T08:21:16;30.70;99.90
44435;DHT22;30138;20.964;105.830;2023-03-23T08:26:39;30.80;99.90
44435;DHT22;30138;20.964;105.830;2023-03-23T08:32:12;30.80;99.90
44435;DHT22;30138;20.964;105.830;2023-03-23T08:37:31;30.80;99.90
44435;DHT22;30138;20.964;105.830;2023-03-23T08:43:03;30.80;99.90
44435;DHT22;30138;20.964;105.830;2023-03-23T08:48:17;30.80;99.90
44435;DHT22;30138;20.964;105.830;2023-03-23T08:53:44;30.80;99.90
44435;DHT22;30138;20.964;105.830;2023-03-23T08:59:11;30.80;99.90
44435;DHT22;30138;20.964;105.830;2023-03-23T09:04:31;30.80;99.90
44435;DHT22;30138;20.964;105.830;2023-03-23T09:09:52;30.80;99.90
44435;DHT22;30138;20.964;105.830;2023-03-23T09:14:59;30.80;99.90
44435;DHT22;30138;20.964;105.830;2023-03-23T09:20:10;30.90;99.90
44435;DHT22;30138;20.964;105.830;2023-03-23T09:25:21;30.90;99.90
44435;DHT22;30138;20.964;105.830;2023-03-23T09:30:30;30.90;99.90
44435;DHT22;30138;20.964;105.830;2023-03-23T09:35:40;30.90;99.90
44435;DHT22;30138;20.964;105.830;2023-03-23T09:40:56;30.90;99.90
44435;DHT22;30138;20.964;105.830;2023-03-23T09:46:16;30.80;99.90
44435;DHT22;30138;20.964;105.830;2023-03-23T09:51:40;30.90;99.90
44435;DHT22;30138;20.964;105.830;2023-03-23T09:56:53;30.80;99.90
44435;DHT22;30138;20.964;105.830;2023-03-23T10:02:12;30.80;99.90
44435;DHT22;30138;20.964;105.830;2023-03-23T10:07:23;30.80;99.90
44435;DHT22;30138;20.964;105.830;2023-03-23T10:12:36;30.80;99.90
44435;DHT22;30138;20.964;105.830;2023-03-23T10:17:52;30.80;99.90
44435;DHT22;30138;20.964;105.830;2023-03-23T10:23:11;30.80;99.90
44435;DHT22;30138;20.964;105.830;2023-03-23T10:28:41;30.80;99.90
44435;DHT22;30138;20.964;105.830;2023-03-23T10:33:50;30.80;99.90
44435;DHT22;30138;20.964;105.830;2023-03-23T10:39:02;30.80;99.90
44435;DHT22;30138;20.964;105.830;2023-03-23T10:44:14;30.80;99.90
44435;DHT22;30138;20.964;105.830;2023-03-23T10:49:24;30.80;99.90
44435;DHT22;30138;20.964;105.830;2023-03-23T10:54:37;30.80;99.90
44435;DHT22;30138;20.964;105.830;2023-03-23T10:59:59;30.80;99.90
44435;DHT22;30138;20.964;105.830;2023-03-23T11:05:18;30.80;99.90
44435;DHT22;30138;20.964;105.830;2023-03-23T11:10:33;30.80;99.90
44435;DHT22;30138;20.964;105.830;2023-03-23T11:15:44;30.80;99.90
44435;DHT22;30138;20.964;105.830;2023-03-23T11:20:54;30.70;99.90
44435;DHT22;30138;20.964;105.830;2023-03-23T11:26:09;30.70;99.90
44435;DHT22;30138;20.964;105.830;2023-03-23T11:37:18;30.70;99.90
44435;DHT22;30138;20.964;105.830;2023-03-23T11:42:37;30.70;99.90
44435;DHT22;30138;20.964;105.830;2023-03-23T11:48:03;30.70;99.90
44435;DHT22;30138;20.964;105.830;2023-03-23T11:53:42;30.70;99.90
44435;DHT22;30138;20.964;105.830;2023-03-23T11:58:55;30.70;99.90
44435;DHT22;30138;20.964;105.830;2023-03-23T12:04:26;30.70;99.90
44435;DHT22;30138;20.964;105.830;2023-03-23T12:09:49;30.70;99.90
44435;DHT22;30138;20.964;105.830;2023-03-23T12:15:14;30.70;99.90
44435;DHT22;30138;20.964;105.830;2023-03-23T12:20:32;30.70;99.90
44435;DHT22;30138;20.964;105.830;2023-03-23T12:26:12;30.70;99.90
44435;DHT22;30138;20.964;105.830;2023-03-23T12:31:30;30.60;99.90
44435;DHT22;30138;20.964;105.830;2023-03-23T12:36:53;30.60;99.90
44435;DHT22;30138;20.964;105.830;2023-03-23T12:42:13;30.60;99.90
44435;DHT22;30138;20.964;105.830;2023-03-23T12:47:35;30.70;99.90
44435;DHT22;30138;20.964;105.830;2023-03-23T12:52:53;30.70;99.90
44435;DHT22;30138;20.964;105.830;2023-03-23T12:58:07;30.60;99.90
44435;DHT22;30138;20.964;105.830;2023-03-23T13:03:19;30.60;99.90
44435;DHT22;30138;20.964;105.830;2023-03-23T13:08:37;30.60;99.90
44435;DHT22;30138;20.964;105.830;2023-03-23T13:13:54;30.60;99.90
44435;DHT22;30138;20.964;105.830;2023-03-23T13:19:11;30.60;99.90
44435;DHT22;30138;20.964;105.830;2023-03-23T13:24:30;30.60;99.90
44435;DHT22;30138;20.964;105.830;2023-03-23T13:29:47;30.60;99.90
44435;DHT22;30138;20.964;105.830;2023-03-23T13:34:57;30.60;99.90
44435;DHT22;30138;20.964;105.830;2023-03-23T13:40:25;30.60;99.90
44435;DHT22;30138;20.964;105.830;2023-03-23T13:45:46;30.50;99.90
44435;DHT22;30138;20.964;105.830;2023-03-23T13:50:58;30.50;99.90
44435;DHT22;30138;20.964;105.830;2023-03-23T13:56:17;30.50;99.90
44435;DHT22;30138;20.964;105.830;2023-03-23T14:01:39;30.50;99.90
44435;DHT22;30138;20.964;105.830;2023-03-23T14:06:54;30.50;99.90
44435;DHT22;30138;20.964;105.830;2023-03-23T14:12:13;30.50;99.90
44435;DHT22;30138;20.964;105.830;2023-03-23T14:17:34;30.50;99.90
44435;DHT22;30138;20.964;105.830;2023-03-23T14:22:55;30.50;99.90
44435;DHT22;30138;20.964;105.830;2023-03-23T14:28:18;30.50;99.90
44435;DHT22;30138;20.964;105.830;2023-03-23T14:33:44;30.50;99.90
44435;DHT22;30138;20.964;105.830;2023-03-23T14:39:16;30.50;99.90
44435;DHT22;30138;20.964;105.830;2023-03-23T14:44:42;30.40;99.90
44435;DHT22;30138;20.964;105.830;2023-03-23T14:50:22;30.40;99.90
44435;DHT22;30138;20.964;105.830;2023-03-23T14:55:43;30.40;99.90
44435;DHT22;30138;20.964;105.830;2023-03-23T15:01:05;30.40;99.90
44435;DHT22;30138;20.964;105.830;2023-03-23T15:06:20;30.40;99.90
44435;DHT22;30138;20.964;105.830;2023-03-23T15:11:39;30.40;99.90
44435;DHT22;30138;20.964;105.830;2023-03-23T15:16:54;30.30;99.90
44435;DHT22;30138;20.964;105.830;2023-03-23T15:22:18;30.30;99.90
44435;DHT22;30138;20.964;105.830;2023-03-23T15:27:29;30.30;99.90
44435;DHT22;30138;20.964;105.830;2023-03-23T15:32:42;30.30;99.90
44435;DHT22;30138;20.964;105.830;2023-03-23T15:38:00;30.30;99.90
44435;DHT22;30138;20.964;105.830;2023-03-23T15:43:17;30.30;99.90
44435;DHT22;30138;20.964;105.830;2023-03-23T15:48:28;30.30;99.90
44435;DHT22;30138;20.964;105.830;2023-03-23T15:53:41;30.20;99.90
44435;DHT22;30138;20.964;105.830;2023-03-23T15:58:50;30.30;99.90
44435;DHT22;30138;20.964;105.830;2023-03-23T16:04:06;30.30;99.90
44435;DHT22;30138;20.964;105.830;2023-03-23T16:09:20;30.30;99.90
44435;DHT22;30138;20.964;105.830;2023-03-23T16:14:29;30.20;99.90
44435;DHT22;30138;20.964;105.830;2023-03-23T16:19:38;30.20;99.90
44435;DHT22;30138;20.964;105.830;2023-03-23T16:24:49;30.20;99.90
44435;DHT22;30138;20.964;105.830;2023-03-23T16:29:57;30.20;99.90
44435;DHT22;30138;20.964;105.830;2023-03-23T16:35:06;30.20;99.90
44435;DHT22;30138;20.964;105.830;2023-03-23T16:40:19;30.20;99.90
44435;DHT22;30138;20.964;105.830;2023-03-23T16:45:29;30.20;99.90
44435;DHT22;30138;20.964;105.830;2023-03-23T16:50:38;30.20;99.90
44435;DHT22;30138;20.964;105.830;2023-03-23T16:55:51;30.10;99.90
44435;DHT22;30138;20.964;105.830;2023-03-23T17:01:01;30.10;99.90
44435;DHT22;30138;20.964;105.830;2023-03-23T17:06:10;30.10;99.90
44435;DHT22;30138;20.964;105.830;2023-03-23T17:11:20;30.10;99.90
44435;DHT22;30138;20.964;105.830;2023-03-23T17:16:28;30.10;99.90
44435;DHT22;30138;20.964;105.830;2023-03-23T17:21:35;30.10;99.90
44435;DHT22;30138;20.964;105.830;2023-03-23T17:26:48;30.10;99.90
44435;DHT22;30138;20.964;105.830;2023-03-23T17:31:54;30.10;99.90
44435;DHT22;30138;20.964;105.830;2023-03-23T17:37:01;30.00;99.90
44435;DHT22;30138;20.964;105.830;2023-03-23T17:42:10;30.00;99.90
44435;DHT22;30138;20.964;105.830;2023-03-23T17:47:18;30.00;99.90
44435;DHT22;30138;20.964;105.830;2023-03-23T17:52:26;30.00;99.90
44435;DHT22;30138;20.964;105.830;2023-03-23T17:57:34;30.00;99.90
44435;DHT22;30138;20.964;105.830;2023-03-23T18:02:41;30.00;99.90
44435;DHT22;30138;20.964;105.830;2023-03-23T18:07:48;30.00;99.90
44435;DHT22;30138;20.964;105.830;2023-03-23T18:12:56;30.00;99.90
44435;DHT22;30138;20.964;105.830;2023-03-23T18:18:04;30.00;99.90
44435;DHT22;30138;20.964;105.830;2023-03-23T18:23:12;30.00;99.90
44435;DHT22;30138;20.964;105.830;2023-03-23T18:28:22;30.00;99.90
44435;DHT22;30138;20.964;105.830;2023-03-23T18:33:29;29.90;99.90
44435;DHT22;30138;20.964;105.830;2023-03-23T18:38:36;29.90;99.90
44435;DHT22;30138;20.964;105.830;2023-03-23T18:43:45;29.90;99.90
44435;DHT22;30138;20.964;105.830;2023-03-23T18:48:52;29.90;99.90
44435;DHT22;30138;20.964;105.830;2023-03-23T18:53:58;29.90;99.90
44435;DHT22;30138;20.964;105.830;2023-03-23T18:59:07;29.80;99.90
44435;DHT22;30138;20.964;105.830;2023-03-23T19:04:13;29.80;99.90
44435;DHT22;30138;20.964;105.830;2023-03-23T19:09:24;29.80;99.90
44435;DHT22;30138;20.964;105.830;2023-03-23T19:14:33;29.80;99.90
44435;DHT22;30138;20.964;105.830;2023-03-23T19:19:41;29.80;99.90
44435;DHT22;30138;20.964;105.830;2023-03-23T19:24:47;29.80;99.90
44435;DHT22;30138;20.964;105.830;2023-03-23T19:29:56;29.80;99.90
44435;DHT22;30138;20.964;105.830;2023-03-23T19:35:02;29.80;99.90
44435;DHT22;30138;20.964;105.830;2023-03-23T19:40:11;29.80;99.90
44435;DHT22;30138;20.964;105.830;2023-03-23T19:45:20;29.80;99.90
44435;DHT22;30138;20.964;105.830;2023-03-23T19:50:27;29.70;99.90
44435;DHT22;30138;20.964;105.830;2023-03-23T19:55:35;29.70;99.90
44435;DHT22;30138;20.964;105.830;2023-03-23T20:00:44;29.70;99.90
44435;DHT22;30138;20.964;105.830;2023-03-23T20:05:51;29.70;99.90
44435;DHT22;30138;20.964;105.830;2023-03-23T20:11:04;29.70;99.90
44435;DHT22;30138;20.964;105.830;2023-03-23T20:16:13;29.70;99.90
44435;DHT22;30138;20.964;105.830;2023-03-23T20:21:20;29.70;99.90
44435;DHT22;30138;20.964;105.830;2023-03-23T20:26:30;29.70;99.90
44435;DHT22;30138;20.964;105.830;2023-03-23T20:31:40;29.70;99.90
44435;DHT22;30138;20.964;105.830;2023-03-23T20:36:48;29.60;99.90
44435;DHT22;30138;20.964;105.830;2023-03-23T20:41:57;29.60;99.90
44435;DHT22;30138;20.964;105.830;2023-03-23T20:47:09;29.60;99.90
44435;DHT22;30138;20.964;105.830;2023-03-23T20:52:16;29.60;99.90
44435;DHT22;30138;20.964;105.830;2023-03-23T20:57:23;29.60;99.90
44435;DHT22;30138;20.964;105.830;2023-03-23T21:02:32;29.60;99.90
44435;DHT22;30138;20.964;105.830;2023-03-23T21:07:39;29.60;99.90
44435;DHT22;30138;20.964;105.830;2023-03-23T21:12:46;29.60;99.90
44435;DHT22;30138;20.964;105.830;2023-03-23T21:17:55;29.60;99.90
44435;DHT22;30138;20.964;105.830;2023-03-23T21:23:02;29.60;99.90
44435;DHT22;30138;20.964;105.830;2023-03-23T21:28:09;29.50;99.90
44435;DHT22;30138;20.964;105.830;2023-03-23T21:33:19;29.50;99.90
44435;DHT22;30138;20.964;105.830;2023-03-23T21:38:27;29.50;99.90
44435;DHT22;30138;20.964;105.830;2023-03-23T21:43:34;29.50;99.90
44435;DHT22;30138;20.964;105.830;2023-03-23T21:48:45;29.50;99.90
44435;DHT22;30138;20.964;105.830;2023-03-23T21:53:54;29.50;99.90
44435;DHT22;30138;20.964;105.830;2023-03-23T21:59:01;29.50;99.90
44435;DHT22;30138;20.964;105.830;2023-03-23T22:04:11;29.50;99.90
44435;DHT22;30138;20.964;105.830;2023-03-23T22:09:18;29.40;99.90
44435;DHT22;30138;20.964;105.830;2023-03-23T22:14:29;29.40;99.90
44435;DHT22;30138;20.964;105.830;2023-03-23T22:19:40;29.40;99.90
44435;DHT22;30138;20.964;105.830;2023-03-23T22:24:47;29.40;99.90
44435;DHT22;30138;20.964;105.830;2023-03-23T22:29:54;29.40;99.90
44435;DHT22;30138;20.964;105.830;2023-03-23T22:35:04;29.40;99.90
44435;DHT22;30138;20.964;105.830;2023-03-23T22:40:15;29.40;99.90
44435;DHT22;30138;20.964;105.830;2023-03-23T22:45:26;29.40;99.90
44435;DHT22;30138;20.964;105.830;2023-03-23T22:50:37;29.40;99.90
44435;DHT22;30138;20.964;105.830;2023-03-23T22:55:48;29.40;99.90
44435;DHT22;30138;20.964;105.830;2023-03-23T23:01:01;29.30;99.90
44435;DHT22;30138;20.964;105.830;2023-03-23T23:06:14;29.30;99.90
44435;DHT22;30138;20.964;105.830;2023-03-23T23:11:28;29.30;99.90
44435;DHT22;30138;20.964;105.830;2023-03-23T23:16:35;29.30;99.90
44435;DHT22;30138;20.964;105.830;2023-03-23T23:21:44;29.30;99.90
44435;DHT22;30138;20.964;105.830;2023-03-23T23:26:52;29.30;99.90
44435;DHT22;30138;20.964;105.830;2023-03-23T23:32:01;29.30;99.90
44435;DHT22;30138;20.964;105.830;2023-03-23T23:37:11;29.30;99.90
44435;DHT22;30138;20.964;105.830;2023-03-23T23:42:18;29.30;99.90
44435;DHT22;30138;20.964;105.830;2023-03-23T23:47:25;29.30;99.90
44435;DHT22;30138;20.964;105.830;2023-03-23T23:52:35;29.30;99.90
44435;DHT22;30138;20.964;105.830;2023-03-23T23:57:43;29.30;99.90
